sensor_id;sensor_type;location;lat;lon;timestamp;pressure;altitude;pressure_sealevel;temperature;humidity
58223;BME280;44020;50.890;15.796;2022-12-07T00:02:24;97198.18;;;1.53;91.39
58223;BME280;44020;50.890;15.796;2022-12-07T00:04:51;97189.54;;;1.50;90.97
58223;BME280;44020;50.890;15.796;2022-12-07T00:07:18;97191.59;;;1.47;91.56
58223;BME280;44020;50.890;15.796;2022-12-07T00:09:45;97187.51;;;1.44;91.21
58223;BME280;44020;50.890;15.796;2022-12-07T00:12:12;97188.39;;;1.44;91.38
58223;BME280;44020;50.890;15.796;2022-12-07T00:14:39;97188.14;;;1.42;91.28
58223;BME280;44020;50.890;15.796;2022-12-07T00:17:06;97190.82;;;1.44;91.42
58223;BME280;44020;50.890;15.796;2022-12-07T00:19:33;97186.27;;;1.44;91.60
58223;BME280;44020;50.890;15.796;2022-12-07T00:22:00;97185.81;;;1.47;91.91
58223;BME280;44020;50.890;15.796;2022-12-07T00:24:27;97183.77;;;1.45;91.71
58223;BME280;44020;50.890;15.796;2022-12-07T00:26:54;97182.04;;;1.45;91.68
58223;BME280;44020;50.890;15.796;2022-12-07T00:29:21;97180.90;;;1.43;91.15
58223;BME280;44020;50.890;15.796;2022-12-07T00:31:50;97181.66;;;1.42;91.50
58223;BME280;44020;50.890;15.796;2022-12-07T00:34:19;97180.96;;;1.37;91.20
58223;BME280;44020;50.890;15.796;2022-12-07T00:36:48;97176.84;;;1.36;91.39
58223;BME280;44020;50.890;15.796;2022-12-07T00:39:16;97181.10;;;1.38;91.94
58223;BME280;44020;50.890;15.796;2022-12-07T00:41:43;97178.61;;;1.39;91.95
58223;BME280;44020;50.890;15.796;2022-12-07T00:44:10;97174.90;;;1.36;91.86
58223;BME280;44020;50.890;15.796;2022-12-07T00:46:38;97175.84;;;1.34;92.32
58223;BME280;44020;50.890;15.796;2022-12-07T00:49:05;97181.13;;;1.38;92.48
58223;BME280;44020;50.890;15.796;2022-12-07T00:51:32;97179.73;;;1.41;92.23
58223;BME280;44020;50.890;15.796;2022-12-07T00:53:59;97180.19;;;1.39;92.37
58223;BME280;44020;50.890;15.796;2022-12-07T00:56:28;97182.41;;;1.41;92.26
58223;BME280;44020;50.890;15.796;2022-12-07T00:58:57;97182.83;;;1.43;92.04
58223;BME280;44020;50.890;15.796;2022-12-07T01:01:26;97182.45;;;1.44;91.65
58223;BME280;44020;50.890;15.796;2022-12-07T01:03:54;97185.81;;;1.47;92.09
58223;BME280;44020;50.890;15.796;2022-12-07T01:06:23;97189.92;;;1.45;91.82
58223;BME280;44020;50.890;15.796;2022-12-07T01:08:51;97190.30;;;1.44;91.98
58223;BME280;44020;50.890;15.796;2022-12-07T01:11:21;97189.42;;;1.44;92.07
58223;BME280;44020;50.890;15.796;2022-12-07T01:13:54;97193.09;;;1.44;91.98
58223;BME280;44020;50.890;15.796;2022-12-07T01:16:23;97193.94;;;1.45;92.10
58223;BME280;44020;50.890;15.796;2022-12-07T01:18:53;97190.20;;;1.47;92.12
58223;BME280;44020;50.890;15.796;2022-12-07T01:21:25;97190.13;;;1.49;92.15
58223;BME280;44020;50.890;15.796;2022-12-07T01:23:53;97191.91;;;1.52;92.24
58223;BME280;44020;50.890;15.796;2022-12-07T01:26:22;97190.58;;;1.54;92.09
58223;BME280;44020;50.890;15.796;2022-12-07T01:28:50;97187.44;;;1.58;92.02
58223;BME280;44020;50.890;15.796;2022-12-07T01:31:20;97186.55;;;1.58;92.16
58223;BME280;44020;50.890;15.796;2022-12-07T01:33:53;97189.84;;;1.59;91.94
58223;BME280;44020;50.890;15.796;2022-12-07T01:36:25;97183.88;;;1.59;91.81
58223;BME280;44020;50.890;15.796;2022-12-07T01:38:58;97187.25;;;1.58;91.65
58223;BME280;44020;50.890;15.796;2022-12-07T01:41:29;97187.66;;;1.53;91.48
58223;BME280;44020;50.890;15.796;2022-12-07T01:44:19;97185.81;;;1.51;91.66
58223;BME280;44020;50.890;15.796;2022-12-07T01:46:49;97188.86;;;1.50;91.48
58223;BME280;44020;50.890;15.796;2022-12-07T01:49:36;97188.65;;;1.50;91.79
58223;BME280;44020;50.890;15.796;2022-12-07T01:52:15;97192.18;;;1.54;91.86
58223;BME280;44020;50.890;15.796;2022-12-07T01:54:44;97186.64;;;1.57;91.85
58223;BME280;44020;50.890;15.796;2022-12-07T01:57:14;97183.08;;;1.58;91.93
58223;BME280;44020;50.890;15.796;2022-12-07T01:59:45;97185.91;;;1.61;91.98
58223;BME280;44020;50.890;15.796;2022-12-07T02:02:34;97182.34;;;1.63;92.31
58223;BME280;44020;50.890;15.796;2022-12-07T02:05:04;97181.68;;;1.66;91.94
58223;BME280;44020;50.890;15.796;2022-12-07T02:07:32;97175.78;;;1.69;92.09
58223;BME280;44020;50.890;15.796;2022-12-07T02:10:17;97176.61;;;1.70;92.13
58223;BME280;44020;50.890;15.796;2022-12-07T02:12:48;97175.98;;;1.68;91.87
58223;BME280;44020;50.890;15.796;2022-12-07T02:15:17;97175.55;;;1.66;91.72
58223;BME280;44020;50.890;15.796;2022-12-07T02:31:32;97165.62;;;1.53;92.02
58223;BME280;44020;50.890;15.796;2022-12-07T02:36:55;97164.12;;;1.51;92.03
58223;BME280;44020;50.890;15.796;2022-12-07T02:39:44;97164.83;;;1.51;92.24
58223;BME280;44020;50.890;15.796;2022-12-07T02:42:17;97164.27;;;1.52;92.37
58223;BME280;44020;50.890;15.796;2022-12-07T02:44:47;97163.23;;;1.51;92.38
58223;BME280;44020;50.890;15.796;2022-12-07T02:47:17;97156.76;;;1.51;92.28
58223;BME280;44020;50.890;15.796;2022-12-07T02:49:47;97152.28;;;1.54;92.36
58223;BME280;44020;50.890;15.796;2022-12-07T02:52:14;97151.27;;;1.56;92.47
58223;BME280;44020;50.890;15.796;2022-12-07T02:54:41;97148.94;;;1.58;92.43
58223;BME280;44020;50.890;15.796;2022-12-07T03:00:20;97152.29;;;1.57;92.07
58223;BME280;44020;50.890;15.796;2022-12-07T03:03:09;97150.31;;;1.58;92.34
58223;BME280;44020;50.890;15.796;2022-12-07T03:05:44;97150.50;;;1.58;92.13
58223;BME280;44020;50.890;15.796;2022-12-07T03:11:06;97142.38;;;1.59;92.31
58223;BME280;44020;50.890;15.796;2022-12-07T03:14:02;97145.29;;;1.57;91.89
58223;BME280;44020;50.890;15.796;2022-12-07T03:16:43;97137.41;;;1.57;92.04
58223;BME280;44020;50.890;15.796;2022-12-07T03:19:16;97138.98;;;1.57;92.06
58223;BME280;44020;50.890;15.796;2022-12-07T03:21:53;97136.13;;;1.51;91.95
58223;BME280;44020;50.890;15.796;2022-12-07T03:24:26;97135.11;;;1.50;92.16
58223;BME280;44020;50.890;15.796;2022-12-07T03:27:05;97129.40;;;1.52;92.22
58223;BME280;44020;50.890;15.796;2022-12-07T03:29:36;97128.91;;;1.51;92.32
58223;BME280;44020;50.890;15.796;2022-12-07T03:32:27;97124.64;;;1.49;92.01
58223;BME280;44020;50.890;15.796;2022-12-07T03:35:05;97126.52;;;1.50;92.22
58223;BME280;44020;50.890;15.796;2022-12-07T03:37:59;97125.60;;;1.51;92.45
58223;BME280;44020;50.890;15.796;2022-12-07T03:40:31;97131.95;;;1.50;92.24
58223;BME280;44020;50.890;15.796;2022-12-07T03:43:00;97132.29;;;1.50;92.50
58223;BME280;44020;50.890;15.796;2022-12-07T03:45:43;97129.98;;;1.51;92.33
58223;BME280;44020;50.890;15.796;2022-12-07T03:48:27;97139.71;;;1.53;92.24
58223;BME280;44020;50.890;15.796;2022-12-07T03:53:50;97134.19;;;1.59;92.11
58223;BME280;44020;50.890;15.796;2022-12-07T03:56:20;97133.31;;;1.55;91.92
58223;BME280;44020;50.890;15.796;2022-12-07T03:58:49;97132.04;;;1.52;91.53
58223;BME280;44020;50.890;15.796;2022-12-07T04:01:18;97122.21;;;1.48;91.60
58223;BME280;44020;50.890;15.796;2022-12-07T04:03:45;97120.92;;;1.45;91.74
58223;BME280;44020;50.890;15.796;2022-12-07T04:06:13;97128.77;;;1.47;91.28
58223;BME280;44020;50.890;15.796;2022-12-07T04:08:40;97133.58;;;1.45;91.26
58223;BME280;44020;50.890;15.796;2022-12-07T04:11:07;97128.09;;;1.42;90.92
58223;BME280;44020;50.890;15.796;2022-12-07T04:13:34;97123.31;;;1.39;90.85
58223;BME280;44020;50.890;15.796;2022-12-07T04:16:21;97122.33;;;1.37;91.15
58223;BME280;44020;50.890;15.796;2022-12-07T04:18:49;97118.81;;;1.38;90.91
58223;BME280;44020;50.890;15.796;2022-12-07T04:21:16;97119.57;;;1.40;90.76
58223;BME280;44020;50.890;15.796;2022-12-07T04:23:43;97119.77;;;1.40;90.52
58223;BME280;44020;50.890;15.796;2022-12-07T04:26:10;97122.84;;;1.38;90.70
58223;BME280;44020;50.890;15.796;2022-12-07T04:28:37;97114.20;;;1.39;90.57
58223;BME280;44020;50.890;15.796;2022-12-07T04:31:04;97114.63;;;1.37;90.40
58223;BME280;44020;50.890;15.796;2022-12-07T04:33:31;97111.72;;;1.36;89.51
58223;BME280;44020;50.890;15.796;2022-12-07T04:35:58;97113.44;;;1.33;89.34
58223;BME280;44020;50.890;15.796;2022-12-07T04:38:25;97111.42;;;1.31;89.47
58223;BME280;44020;50.890;15.796;2022-12-07T04:40:53;97107.73;;;1.31;89.94
58223;BME280;44020;50.890;15.796;2022-12-07T04:43:20;97108.71;;;1.32;90.22
58223;BME280;44020;50.890;15.796;2022-12-07T04:45:47;97107.65;;;1.33;90.01
58223;BME280;44020;50.890;15.796;2022-12-07T04:48:15;97109.89;;;1.33;90.36
58223;BME280;44020;50.890;15.796;2022-12-07T04:50:42;97111.66;;;1.33;90.13
58223;BME280;44020;50.890;15.796;2022-12-07T04:53:09;97108.61;;;1.35;89.93
58223;BME280;44020;50.890;15.796;2022-12-07T04:55:36;97112.51;;;1.34;89.69
58223;BME280;44020;50.890;15.796;2022-12-07T04:58:03;97111.36;;;1.32;89.72
58223;BME280;44020;50.890;15.796;2022-12-07T05:00:30;97107.91;;;1.31;89.48
58223;BME280;44020;50.890;15.796;2022-12-07T05:02:57;97109.55;;;1.30;89.65
58223;BME280;44020;50.890;15.796;2022-12-07T05:05:24;97109.25;;;1.28;89.92
58223;BME280;44020;50.890;15.796;2022-12-07T05:07:51;97107.73;;;1.27;90.04
58223;BME280;44020;50.890;15.796;2022-12-07T05:10:19;97105.59;;;1.28;89.87
58223;BME280;44020;50.890;15.796;2022-12-07T05:12:46;97105.53;;;1.30;90.21
58223;BME280;44020;50.890;15.796;2022-12-07T05:15:15;97106.94;;;1.33;90.17
58223;BME280;44020;50.890;15.796;2022-12-07T05:17:42;97106.20;;;1.34;90.20
58223;BME280;44020;50.890;15.796;2022-12-07T05:20:10;97107.02;;;1.35;90.36
58223;BME280;44020;50.890;15.796;2022-12-07T05:22:37;97106.86;;;1.39;90.30
58223;BME280;44020;50.890;15.796;2022-12-07T05:25:04;97106.58;;;1.41;90.39
58223;BME280;44020;50.890;15.796;2022-12-07T05:27:31;97105.52;;;1.46;90.22
58223;BME280;44020;50.890;15.796;2022-12-07T05:30:01;97104.52;;;1.44;89.67
58223;BME280;44020;50.890;15.796;2022-12-07T05:32:29;97099.23;;;1.41;89.85
58223;BME280;44020;50.890;15.796;2022-12-07T05:34:56;97100.09;;;1.41;89.50
58223;BME280;44020;50.890;15.796;2022-12-07T05:37:23;97096.89;;;1.43;89.51
58223;BME280;44020;50.890;15.796;2022-12-07T05:39:50;97087.91;;;1.40;89.65
58223;BME280;44020;50.890;15.796;2022-12-07T05:42:17;97086.11;;;1.41;89.80
58223;BME280;44020;50.890;15.796;2022-12-07T05:44:46;97085.35;;;1.42;89.73
58223;BME280;44020;50.890;15.796;2022-12-07T05:47:14;97083.74;;;1.43;90.05
58223;BME280;44020;50.890;15.796;2022-12-07T05:49:41;97080.85;;;1.46;89.98
58223;BME280;44020;50.890;15.796;2022-12-07T05:52:08;97081.80;;;1.48;90.42
58223;BME280;44020;50.890;15.796;2022-12-07T05:54:36;97085.36;;;1.42;90.35
58223;BME280;44020;50.890;15.796;2022-12-07T05:57:03;97087.30;;;1.42;90.64
58223;BME280;44020;50.890;15.796;2022-12-07T05:59:30;97080.78;;;1.43;90.43
58223;BME280;44020;50.890;15.796;2022-12-07T06:04:28;97084.27;;;1.40;90.36
58223;BME280;44020;50.890;15.796;2022-12-07T06:06:56;97086.98;;;1.41;90.26
58223;BME280;44020;50.890;15.796;2022-12-07T06:09:26;97079.92;;;1.42;90.18
58223;BME280;44020;50.890;15.796;2022-12-07T06:11:54;97079.34;;;1.44;90.49
58223;BME280;44020;50.890;15.796;2022-12-07T06:14:41;97082.67;;;1.44;90.56
58223;BME280;44020;50.890;15.796;2022-12-07T06:17:09;97082.84;;;1.40;90.32
58223;BME280;44020;50.890;15.796;2022-12-07T06:19:37;97082.37;;;1.39;90.38
58223;BME280;44020;50.890;15.796;2022-12-07T06:22:05;97079.27;;;1.37;89.96
58223;BME280;44020;50.890;15.796;2022-12-07T06:24:32;97078.15;;;1.35;89.98
58223;BME280;44020;50.890;15.796;2022-12-07T06:27:00;97078.39;;;1.34;89.89
58223;BME280;44020;50.890;15.796;2022-12-07T06:29:27;97074.45;;;1.32;89.80
58223;BME280;44020;50.890;15.796;2022-12-07T06:31:54;97073.98;;;1.31;89.43
58223;BME280;44020;50.890;15.796;2022-12-07T06:34:23;97074.45;;;1.28;89.40
58223;BME280;44020;50.890;15.796;2022-12-07T06:36:51;97069.88;;;1.28;89.30
58223;BME280;44020;50.890;15.796;2022-12-07T06:39:29;97068.71;;;1.27;89.14
58223;BME280;44020;50.890;15.796;2022-12-07T06:41:57;97067.90;;;1.25;88.97
58223;BME280;44020;50.890;15.796;2022-12-07T06:44:24;97069.30;;;1.25;88.78
58223;BME280;44020;50.890;15.796;2022-12-07T06:46:52;97071.80;;;1.24;88.34
58223;BME280;44020;50.890;15.796;2022-12-07T06:49:20;97070.81;;;1.23;88.00
58223;BME280;44020;50.890;15.796;2022-12-07T06:51:47;97072.60;;;1.22;87.77
58223;BME280;44020;50.890;15.796;2022-12-07T06:54:15;97071.84;;;1.19;87.76
58223;BME280;44020;50.890;15.796;2022-12-07T06:56:43;97071.91;;;1.17;87.78
58223;BME280;44020;50.890;15.796;2022-12-07T06:59:10;97066.70;;;1.17;87.37
58223;BME280;44020;50.890;15.796;2022-12-07T07:01:37;97066.73;;;1.16;87.44
58223;BME280;44020;50.890;15.796;2022-12-07T07:04:05;97069.55;;;1.16;87.65
58223;BME280;44020;50.890;15.796;2022-12-07T07:06:32;97061.67;;;1.16;87.33
58223;BME280;44020;50.890;15.796;2022-12-07T07:08:59;97060.09;;;1.16;87.31
58223;BME280;44020;50.890;15.796;2022-12-07T07:11:26;97056.67;;;1.14;87.04
58223;BME280;44020;50.890;15.796;2022-12-07T07:13:53;97056.58;;;1.12;87.18
58223;BME280;44020;50.890;15.796;2022-12-07T07:16:23;97049.98;;;1.11;87.10
58223;BME280;44020;50.890;15.796;2022-12-07T07:18:51;97042.46;;;1.11;87.14
58223;BME280;44020;50.890;15.796;2022-12-07T07:21:18;97038.11;;;1.10;87.12
58223;BME280;44020;50.890;15.796;2022-12-07T07:23:45;97036.71;;;1.10;86.92
58223;BME280;44020;50.890;15.796;2022-12-07T07:26:12;97038.35;;;1.09;86.86
58223;BME280;44020;50.890;15.796;2022-12-07T07:28:39;97036.10;;;1.09;86.79
58223;BME280;44020;50.890;15.796;2022-12-07T07:31:06;97037.14;;;1.09;86.78
58223;BME280;44020;50.890;15.796;2022-12-07T07:33:33;97039.66;;;1.11;86.52
58223;BME280;44020;50.890;15.796;2022-12-07T07:36:00;97040.77;;;1.14;86.69
58223;BME280;44020;50.890;15.796;2022-12-07T07:38:27;97044.10;;;1.17;86.42
58223;BME280;44020;50.890;15.796;2022-12-07T07:40:54;97041.24;;;1.19;86.58
58223;BME280;44020;50.890;15.796;2022-12-07T07:43:21;97048.68;;;1.20;86.15
58223;BME280;44020;50.890;15.796;2022-12-07T07:45:48;97047.56;;;1.22;85.95
58223;BME280;44020;50.890;15.796;2022-12-07T07:48:15;97053.55;;;1.25;85.80
58223;BME280;44020;50.890;15.796;2022-12-07T07:50:42;97051.58;;;1.27;85.37
58223;BME280;44020;50.890;15.796;2022-12-07T07:53:09;97052.13;;;1.26;85.42
58223;BME280;44020;50.890;15.796;2022-12-07T07:55:36;97053.48;;;1.27;84.99
58223;BME280;44020;50.890;15.796;2022-12-07T07:58:03;97050.98;;;1.28;85.03
58223;BME280;44020;50.890;15.796;2022-12-07T08:00:31;97050.52;;;1.31;84.74
58223;BME280;44020;50.890;15.796;2022-12-07T08:02:58;97048.83;;;1.33;84.78
58223;BME280;44020;50.890;15.796;2022-12-07T08:05:25;97048.20;;;1.36;84.34
58223;BME280;44020;50.890;15.796;2022-12-07T08:07:53;97046.90;;;1.37;84.22
58223;BME280;44020;50.890;15.796;2022-12-07T08:10:20;97048.36;;;1.40;84.52
58223;BME280;44020;50.890;15.796;2022-12-07T08:12:47;97047.60;;;1.45;84.39
58223;BME280;44020;50.890;15.796;2022-12-07T08:15:32;97043.45;;;1.48;84.11
58223;BME280;44020;50.890;15.796;2022-12-07T08:18:00;97041.57;;;1.51;84.01
58223;BME280;44020;50.890;15.796;2022-12-07T08:20:29;97043.03;;;1.54;83.89
58223;BME280;44020;50.890;15.796;2022-12-07T08:22:57;97038.66;;;1.57;84.21
58223;BME280;44020;50.890;15.796;2022-12-07T08:25:24;97039.05;;;1.60;84.19
58223;BME280;44020;50.890;15.796;2022-12-07T08:27:51;97033.02;;;1.62;83.82
58223;BME280;44020;50.890;15.796;2022-12-07T08:30:19;97030.27;;;1.65;83.72
58223;BME280;44020;50.890;15.796;2022-12-07T08:32:47;97033.82;;;1.68;83.79
58223;BME280;44020;50.890;15.796;2022-12-07T08:35:15;97035.72;;;1.72;83.84
58223;BME280;44020;50.890;15.796;2022-12-07T08:37:42;97034.99;;;1.76;83.55
58223;BME280;44020;50.890;15.796;2022-12-07T08:40:10;97033.34;;;1.82;83.83
58223;BME280;44020;50.890;15.796;2022-12-07T08:42:42;97031.35;;;1.87;83.90
58223;BME280;44020;50.890;15.796;2022-12-07T08:45:13;97033.16;;;1.93;83.89
58223;BME280;44020;50.890;15.796;2022-12-07T08:47:48;97028.54;;;1.99;84.10
58223;BME280;44020;50.890;15.796;2022-12-07T08:50:17;97028.64;;;2.04;83.82
58223;BME280;44020;50.890;15.796;2022-12-07T08:52:51;97028.98;;;2.07;83.86
58223;BME280;44020;50.890;15.796;2022-12-07T08:55:19;97026.58;;;2.11;83.94
58223;BME280;44020;50.890;15.796;2022-12-07T08:57:46;97025.38;;;2.14;83.66
58223;BME280;44020;50.890;15.796;2022-12-07T09:00:14;97026.56;;;2.15;83.12
58223;BME280;44020;50.890;15.796;2022-12-07T09:02:41;97025.16;;;2.15;82.97
58223;BME280;44020;50.890;15.796;2022-12-07T09:05:10;97028.09;;;2.16;82.63
58223;BME280;44020;50.890;15.796;2022-12-07T09:07:38;97027.15;;;2.17;82.69
58223;BME280;44020;50.890;15.796;2022-12-07T09:10:06;97026.69;;;2.19;82.74
58223;BME280;44020;50.890;15.796;2022-12-07T09:12:33;97021.36;;;2.24;82.37
58223;BME280;44020;50.890;15.796;2022-12-07T09:15:00;97019.57;;;2.25;82.37
58223;BME280;44020;50.890;15.796;2022-12-07T09:17:27;97015.30;;;2.27;82.55
58223;BME280;44020;50.890;15.796;2022-12-07T09:19:59;97014.79;;;2.30;82.43
58223;BME280;44020;50.890;15.796;2022-12-07T09:22:30;97014.45;;;2.33;82.12
58223;BME280;44020;50.890;15.796;2022-12-07T09:24:58;97010.07;;;2.37;82.25
58223;BME280;44020;50.890;15.796;2022-12-07T09:27:26;97017.42;;;2.41;82.49
58223;BME280;44020;50.890;15.796;2022-12-07T09:29:54;97019.38;;;2.44;81.86
58223;BME280;44020;50.890;15.796;2022-12-07T09:32:21;97012.35;;;2.44;81.26
58223;BME280;44020;50.890;15.796;2022-12-07T09:34:48;97012.20;;;2.43;81.81
58223;BME280;44020;50.890;15.796;2022-12-07T09:37:15;97009.13;;;2.45;81.74
58223;BME280;44020;50.890;15.796;2022-12-07T09:39:42;97007.52;;;2.46;81.75
58223;BME280;44020;50.890;15.796;2022-12-07T09:44:51;97004.56;;;2.45;81.58
58223;BME280;44020;50.890;15.796;2022-12-07T09:47:18;97013.77;;;2.47;81.30
58223;BME280;44020;50.890;15.796;2022-12-07T09:49:45;97015.71;;;2.43;81.60
58223;BME280;44020;50.890;15.796;2022-12-07T09:52:21;97018.13;;;2.41;81.37
58223;BME280;44020;50.890;15.796;2022-12-07T09:54:52;97025.08;;;2.39;81.82
58223;BME280;44020;50.890;15.796;2022-12-07T09:57:25;97021.55;;;2.35;82.06
58223;BME280;44020;50.890;15.796;2022-12-07T09:59:56;97020.80;;;2.29;81.97
58223;BME280;44020;50.890;15.796;2022-12-07T10:02:36;97019.47;;;2.23;83.04
58223;BME280;44020;50.890;15.796;2022-12-07T10:05:06;97016.52;;;2.23;83.38
58223;BME280;44020;50.890;15.796;2022-12-07T10:07:34;97013.52;;;2.20;83.90
58223;BME280;44020;50.890;15.796;2022-12-07T10:10:03;97018.02;;;2.21;84.10
58223;BME280;44020;50.890;15.796;2022-12-07T10:12:55;97020.00;;;2.23;84.46
58223;BME280;44020;50.890;15.796;2022-12-07T10:15:22;97023.22;;;2.26;84.42
58223;BME280;44020;50.890;15.796;2022-12-07T10:17:52;97017.96;;;2.26;84.09
58223;BME280;44020;50.890;15.796;2022-12-07T10:20:25;97018.11;;;2.22;83.96
58223;BME280;44020;50.890;15.796;2022-12-07T10:23:14;97019.70;;;2.19;83.89
58223;BME280;44020;50.890;15.796;2022-12-07T10:25:42;97010.92;;;2.16;84.05
58223;BME280;44020;50.890;15.796;2022-12-07T10:28:17;97007.46;;;2.15;83.87
58223;BME280;44020;50.890;15.796;2022-12-07T10:30:55;97003.09;;;2.15;84.09
58223;BME280;44020;50.890;15.796;2022-12-07T10:33:39;96997.52;;;2.14;83.99
58223;BME280;44020;50.890;15.796;2022-12-07T10:36:21;96999.64;;;2.13;84.01
58223;BME280;44020;50.890;15.796;2022-12-07T10:39:01;97001.35;;;2.14;84.04
58223;BME280;44020;50.890;15.796;2022-12-07T10:41:30;97000.41;;;2.15;84.10
58223;BME280;44020;50.890;15.796;2022-12-07T10:43:57;96999.51;;;2.20;83.97
58223;BME280;44020;50.890;15.796;2022-12-07T10:46:43;97003.44;;;2.21;83.73
58223;BME280;44020;50.890;15.796;2022-12-07T10:56:01;97004.83;;;2.26;83.58
58223;BME280;44020;50.890;15.796;2022-12-07T11:03:45;96996.39;;;2.26;82.92
58223;BME280;44020;50.890;15.796;2022-12-07T11:16:56;96970.65;;;2.33;84.20
58223;BME280;44020;50.890;15.796;2022-12-07T11:19:42;96971.33;;;2.37;84.09
58223;BME280;44020;50.890;15.796;2022-12-07T11:22:26;96972.48;;;2.42;84.33
58223;BME280;44020;50.890;15.796;2022-12-07T11:25:10;96967.14;;;2.47;84.34
58223;BME280;44020;50.890;15.796;2022-12-07T11:27:51;96965.31;;;2.52;84.41
58223;BME280;44020;50.890;15.796;2022-12-07T11:30:34;96961.12;;;2.55;84.18
58223;BME280;44020;50.890;15.796;2022-12-07T11:33:26;96968.52;;;2.58;83.92
58223;BME280;44020;50.890;15.796;2022-12-07T11:38:53;96962.70;;;2.59;83.47
58223;BME280;44020;50.890;15.796;2022-12-07T11:41:26;96962.37;;;2.58;83.24
58223;BME280;44020;50.890;15.796;2022-12-07T11:44:11;96964.74;;;2.60;83.48
58223;BME280;44020;50.890;15.796;2022-12-07T11:47:12;96965.23;;;2.61;83.61
58223;BME280;44020;50.890;15.796;2022-12-07T11:49:56;96964.30;;;2.62;83.62
58223;BME280;44020;50.890;15.796;2022-12-07T11:55:27;96968.98;;;2.70;83.35
58223;BME280;44020;50.890;15.796;2022-12-07T12:00:55;96966.70;;;2.70;82.90
58223;BME280;44020;50.890;15.796;2022-12-07T12:03:31;96966.44;;;2.72;82.93
58223;BME280;44020;50.890;15.796;2022-12-07T12:06:00;96961.77;;;2.74;82.12
58223;BME280;44020;50.890;15.796;2022-12-07T12:08:39;96958.21;;;2.75;81.87
58223;BME280;44020;50.890;15.796;2022-12-07T12:22:34;96946.05;;;2.76;81.26
58223;BME280;44020;50.890;15.796;2022-12-07T12:25:19;96945.86;;;2.76;81.39
58223;BME280;44020;50.890;15.796;2022-12-07T12:27:49;96944.90;;;2.78;81.15
58223;BME280;44020;50.890;15.796;2022-12-07T12:30:39;96942.02;;;2.76;80.79
58223;BME280;44020;50.890;15.796;2022-12-07T12:33:19;96939.90;;;2.76;80.48
58223;BME280;44020;50.890;15.796;2022-12-07T12:46:56;96931.86;;;2.86;80.27
58223;BME280;44020;50.890;15.796;2022-12-07T12:57:34;96929.58;;;2.99;78.32
58223;BME280;44020;50.890;15.796;2022-12-07T13:00:23;96922.54;;;2.93;78.06
58223;BME280;44020;50.890;15.796;2022-12-07T13:02:53;96928.55;;;2.99;77.82
58223;BME280;44020;50.890;15.796;2022-12-07T13:05:30;96929.12;;;3.01;77.04
58223;BME280;44020;50.890;15.796;2022-12-07T13:08:24;96924.24;;;2.97;77.23
58223;BME280;44020;50.890;15.796;2022-12-07T13:10:49;96923.98;;;2.92;77.46
58223;BME280;44020;50.890;15.796;2022-12-07T13:26:19;96931.22;;;2.82;77.79
58223;BME280;44020;50.890;15.796;2022-12-07T13:28:52;96934.28;;;2.80;77.01
58223;BME280;44020;50.890;15.796;2022-12-07T13:34:38;96937.46;;;2.73;77.53
58223;BME280;44020;50.890;15.796;2022-12-07T13:37:15;96938.73;;;2.71;77.78
58223;BME280;44020;50.890;15.796;2022-12-07T13:39:49;96940.02;;;2.67;77.71
58223;BME280;44020;50.890;15.796;2022-12-07T13:42:28;96941.74;;;2.60;78.58
58223;BME280;44020;50.890;15.796;2022-12-07T13:44:58;96945.79;;;2.54;79.27
58223;BME280;44020;50.890;15.796;2022-12-07T13:49:55;96943.20;;;2.46;80.79
58223;BME280;44020;50.890;15.796;2022-12-07T13:52:27;96941.57;;;2.43;81.04
58223;BME280;44020;50.890;15.796;2022-12-07T13:57:28;96936.25;;;2.48;81.66
58223;BME280;44020;50.890;15.796;2022-12-07T13:59:58;96937.86;;;2.51;81.78
58223;BME280;44020;50.890;15.796;2022-12-07T14:02:30;96944.58;;;2.53;81.73
58223;BME280;44020;50.890;15.796;2022-12-07T14:05:23;96939.66;;;2.53;81.85
58223;BME280;44020;50.890;15.796;2022-12-07T14:12:57;96945.77;;;2.46;82.54
58223;BME280;44020;50.890;15.796;2022-12-07T14:15:33;96948.90;;;2.47;82.57
58223;BME280;44020;50.890;15.796;2022-12-07T14:18:02;96951.80;;;2.49;82.91
58223;BME280;44020;50.890;15.796;2022-12-07T14:20:40;96952.30;;;2.49;82.91
58223;BME280;44020;50.890;15.796;2022-12-07T14:23:24;96954.74;;;2.49;83.22
58223;BME280;44020;50.890;15.796;2022-12-07T14:25:53;96960.59;;;2.52;83.53
58223;BME280;44020;50.890;15.796;2022-12-07T14:28:34;96959.42;;;2.54;83.87
58223;BME280;44020;50.890;15.796;2022-12-07T14:31:03;96962.39;;;2.55;83.71
58223;BME280;44020;50.890;15.796;2022-12-07T14:33:30;96957.83;;;2.54;83.59
58223;BME280;44020;50.890;15.796;2022-12-07T14:35:57;96961.40;;;2.53;83.55
58223;BME280;44020;50.890;15.796;2022-12-07T14:38:25;96967.14;;;2.51;83.65
58223;BME280;44020;50.890;15.796;2022-12-07T14:40:53;96966.80;;;2.47;83.68
58223;BME280;44020;50.890;15.796;2022-12-07T14:43:41;96970.73;;;2.42;83.77
58223;BME280;44020;50.890;15.796;2022-12-07T14:46:09;96971.44;;;2.39;84.13
58223;BME280;44020;50.890;15.796;2022-12-07T14:48:36;96979.81;;;2.32;85.06
58223;BME280;44020;50.890;15.796;2022-12-07T14:51:03;96979.42;;;2.15;85.43
58223;BME280;44020;50.890;15.796;2022-12-07T14:53:38;96978.67;;;2.01;85.85
58223;BME280;44020;50.890;15.796;2022-12-07T14:56:06;96979.04;;;1.90;86.10
58223;BME280;44020;50.890;15.796;2022-12-07T14:58:33;96979.64;;;1.80;86.06
58223;BME280;44020;50.890;15.796;2022-12-07T15:01:01;96981.62;;;1.72;86.18
58223;BME280;44020;50.890;15.796;2022-12-07T15:03:28;96981.04;;;1.70;86.55
58223;BME280;44020;50.890;15.796;2022-12-07T15:05:56;96980.09;;;1.63;87.03
58223;BME280;44020;50.890;15.796;2022-12-07T15:08:23;96977.89;;;1.58;87.46
58223;BME280;44020;50.890;15.796;2022-12-07T15:10:50;96973.47;;;1.51;87.84
58223;BME280;44020;50.890;15.796;2022-12-07T15:13:17;96974.95;;;1.49;87.77
58223;BME280;44020;50.890;15.796;2022-12-07T15:16:03;96973.65;;;1.51;87.87
58223;BME280;44020;50.890;15.796;2022-12-07T15:18:30;96972.70;;;1.45;87.93
58223;BME280;44020;50.890;15.796;2022-12-07T15:20:57;96971.48;;;1.41;87.72